Time;durP1;ratioP1;P1;durP2;ratioP2;P2;SDS_P1;SDS_P2;PMS_P1;PMS_P2;Temp;Humidity;BMP_temperature;BMP_pressure;BME280_temperature;BME280_humidity;BME280_pressure;Samples;Min_cycle;Max_cycle;Signal;HPM_P1;HPM_P2
2021/05/01 00:00:01;;;;;;;1999.90;999.90;;;7.60;99.90;;;;;;5018267;28;20382;-94
2021/05/01 00:02:29;;;;;;;1999.90;999.90;;;7.60;99.90;;;;;;5018535;28;20057;-94
2021/05/01 00:04:57;;;;;;;1999.90;999.90;;;7.50;99.90;;;;;;5017499;28;20492;-95
2021/05/01 00:07:25;;;;;;;1999.90;999.90;;;7.50;99.90;;;;;;5018609;28;20108;-94
2021/05/01 00:09:52;;;;;;;1999.90;999.90;;;7.50;99.90;;;;;;5021737;28;20073;-95
2021/05/01 00:12:20;;;;;;;1999.90;999.90;;;7.50;99.90;;;;;;5024836;28;20077;-94
2021/05/01 00:14:47;;;;;;;1999.90;999.90;;;7.50;99.90;;;;;;5019170;28;20120;-93
2021/05/01 00:17:15;;;;;;;1999.90;999.90;;;7.50;99.90;;;;;;5018588;28;20104;-94
2021/05/01 00:19:45;;;;;;;1999.90;999.90;;;7.50;99.90;;;;;;5017694;28;20075;-94
2021/05/01 00:22:15;;;;;;;1999.90;999.90;;;7.50;99.90;;;;;;5017554;28;20056;-93
2021/05/01 00:24:47;;;;;;;1999.90;999.90;;;7.60;99.90;;;;;;5017546;28;20049;-94
2021/05/01 00:27:23;;;;;;;1999.90;999.90;;;7.60;99.90;;;;;;5017290;28;20141;-94
2021/05/01 00:29:54;;;;;;;1999.90;999.90;;;7.60;99.90;;;;;;5017965;28;20049;-94
2021/05/01 00:32:22;;;;;;;1999.90;999.90;;;7.60;99.90;;;;;;5017923;28;20527;-93
2021/05/01 00:34:49;;;;;;;1999.90;999.90;;;7.60;99.90;;;;;;5017264;28;20058;-94
2021/05/01 00:37:16;;;;;;;1999.90;999.90;;;7.60;99.90;;;;;;5017373;28;20054;-94
2021/05/01 00:39:47;;;;;;;1999.90;999.90;;;7.60;99.90;;;;;;5017803;28;20058;-93
2021/05/01 00:42:15;;;;;;;1999.90;999.90;;;7.60;99.90;;;;;;5017220;28;20139;-94
2021/05/01 00:44:42;;;;;;;1999.90;999.90;;;7.60;99.90;;;;;;5017338;28;20053;-93
2021/05/01 00:47:09;;;;;;;1999.90;999.90;;;7.60;99.90;;;;;;5016759;28;20054;-95
2021/05/01 00:49:38;;;;;;;1999.90;999.90;;;7.60;99.90;;;;;;5016861;28;20053;-93
2021/05/01 00:52:06;;;;;;;1999.90;999.90;;;7.60;99.90;;;;;;5017185;28;20124;-94
2021/05/01 00:54:34;;;;;;;1999.90;999.90;;;7.60;99.90;;;;;;5017045;28;20116;-94
2021/05/01 00:57:02;;;;;;;1999.90;999.90;;;7.50;99.90;;;;;;5016977;28;20049;-94
2021/05/01 00:59:31;;;;;;;1999.90;999.90;;;7.50;99.90;;;;;;5017138;28;20073;-93
2021/05/01 01:02:00;;;;;;;1999.90;999.90;;;7.50;99.90;;;;;;5016357;28;20050;-93
2021/05/01 01:04:28;;;;;;;1999.90;999.90;;;7.40;99.90;;;;;;5016681;28;20057;-95
2021/05/01 01:06:57;;;;;;;1999.90;999.90;;;7.40;99.90;;;;;;5015875;28;20134;-95
2021/05/01 01:09:31;;;;;;;1999.90;999.90;;;7.30;99.90;;;;;;5017232;28;20058;-93
2021/05/01 01:11:58;;;;;;;1999.90;999.90;;;7.30;99.90;;;;;;5016543;28;20049;-93
2021/05/01 01:14:27;;;;;;;1999.90;999.90;;;7.30;99.90;;;;;;5016708;28;20069;-93
2021/05/01 01:16:56;;;;;;;1999.90;999.90;;;7.30;99.90;;;;;;5016764;28;20107;-94
2021/05/01 01:19:24;;;;;;;1999.90;999.90;;;7.30;99.90;;;;;;5016189;28;20436;-93
2021/05/01 01:21:55;;;;;;;1999.90;999.90;;;7.30;99.90;;;;;;5016760;28;20060;-93
2021/05/01 01:24:30;;;;;;;1999.90;999.90;;;7.30;99.90;;;;;;5016528;28;20050;-94
2021/05/01 01:26:57;;;;;;;1999.90;999.90;;;7.20;99.90;;;;;;5015657;28;20045;-94
2021/05/01 01:29:25;;;;;;;1999.90;999.90;;;7.20;99.90;;;;;;5016584;28;20126;-93
2021/05/01 01:31:53;;;;;;;1999.90;999.90;;;7.30;99.90;;;;;;5016712;28;20450;-93
2021/05/01 01:34:20;;;;;;;1999.90;999.90;;;7.20;99.90;;;;;;5015998;28;20065;-93
2021/05/01 01:36:48;;;;;;;1999.90;999.90;;;7.30;99.90;;;;;;5016017;28;20053;-94
2021/05/01 01:39:15;;;;;;;1999.90;999.90;;;7.30;99.90;;;;;;5017002;28;20053;-93
2021/05/01 01:41:44;;;;;;;1999.90;999.90;;;7.30;99.90;;;;;;5015891;28;20060;-94
2021/05/01 01:44:19;;;;;;;1999.90;999.90;;;7.30;99.90;;;;;;5016772;28;20058;-95
2021/05/01 01:46:52;;;;;;;1999.90;999.90;;;7.30;99.90;;;;;;5015690;28;20085;-94
2021/05/01 01:49:28;;;;;;;1999.90;999.90;;;7.20;99.90;;;;;;5016767;28;20432;-94
2021/05/01 01:51:55;;;;;;;1999.90;999.90;;;7.30;99.90;;;;;;5016659;28;20141;-94
2021/05/01 01:54:26;;;;;;;1999.90;999.90;;;7.20;99.90;;;;;;5016626;28;20207;-94
2021/05/01 01:57:00;;;;;;;1999.90;999.90;;;7.20;99.90;;;;;;5016370;28;20046;-94
2021/05/01 01:59:34;;;;;;;1999.90;999.90;;;7.30;99.90;;;;;;5015612;28;20069;-95
2021/05/01 02:02:07;;;;;;;1999.90;999.90;;;7.30;99.90;;;;;;5015939;28;20050;-94
2021/05/01 02:04:38;;;;;;;1999.90;999.90;;;7.30;99.90;;;;;;5015453;28;20505;-94
2021/05/01 02:07:10;;;;;;;1999.90;999.90;;;7.30;99.90;;;;;;5015226;28;20053;-95
2021/05/01 02:09:40;;;;;;;1999.90;999.90;;;7.20;99.90;;;;;;5016005;28;20060;-94
2021/05/01 02:12:09;;;;;;;1999.90;999.90;;;7.20;99.90;;;;;;5015860;28;20112;-94
2021/05/01 02:14:36;;;;;;;1999.90;999.90;;;7.20;99.90;;;;;;5015793;28;20053;-94
2021/05/01 02:17:04;;;;;;;1999.90;999.90;;;7.20;99.90;;;;;;5015834;28;20134;-94
2021/05/01 02:19:32;;;;;;;1999.90;999.90;;;7.20;99.90;;;;;;5015902;28;20050;-93
2021/05/01 02:22:01;;;;;;;1999.90;999.90;;;7.10;99.90;;;;;;5016289;28;20053;-94
2021/05/01 02:24:30;;;;;;;1999.90;999.90;;;7.10;99.90;;;;;;5014938;28;20485;-93
2021/05/01 02:26:57;;;;;;;1999.90;999.90;;;7.10;99.90;;;;;;5016202;28;20042;-93
2021/05/01 02:29:26;;;;;;;1999.90;999.90;;;7.10;99.90;;;;;;5015209;28;20057;-94
2021/05/01 02:31:56;;;;;;;1999.90;999.90;;;7.10;99.90;;;;;;5027411;28;20057;-96
2021/05/01 03:09:43;;;;;;;1999.90;999.90;;;6.50;99.90;;;;;;5187839;23;20081;-94
2021/05/01 03:12:11;;;;;;;1999.90;999.90;;;6.50;99.90;;;;;;5015272;28;20056;-94
2021/05/01 03:14:38;;;;;;;1999.90;999.90;;;6.40;99.90;;;;;;5014982;28;20050;-95
2021/05/01 03:17:06;;;;;;;1999.90;999.90;;;6.40;99.90;;;;;;5014459;28;20054;-95
2021/05/01 03:19:34;;;;;;;1999.90;999.90;;;6.40;99.90;;;;;;5015385;28;20125;-95
2021/05/01 03:22:01;;;;;;;1999.90;999.90;;;6.30;99.90;;;;;;5014633;28;20108;-94
2021/05/01 03:24:32;;;;;;;1999.90;999.90;;;6.30;99.90;;;;;;5015360;28;20472;-94
2021/05/01 03:27:01;;;;;;;1999.90;999.90;;;6.20;99.90;;;;;;5014746;28;20054;-96
2021/05/01 03:29:32;;;;;;;1999.90;999.90;;;6.20;99.90;;;;;;5015566;28;20366;-95
2021/05/01 03:31:59;;;;;;;1999.90;999.90;;;6.20;99.90;;;;;;5015610;28;20056;-95
2021/05/01 03:34:27;;;;;;;1999.90;999.90;;;6.20;99.90;;;;;;5015046;28;20137;-94
2021/05/01 03:36:54;;;;;;;1999.90;999.90;;;6.20;99.90;;;;;;5014578;28;20046;-94
2021/05/01 03:39:25;;;;;;;1999.90;999.90;;;6.10;99.90;;;;;;5014759;28;20455;-94
2021/05/01 03:41:59;;;;;;;1999.90;999.90;;;6.10;99.90;;;;;;5015739;28;20072;-95
2021/05/01 03:44:31;;;;;;;1999.90;999.90;;;6.10;99.90;;;;;;5015551;28;20481;-95
2021/05/01 03:47:01;;;;;;;1999.90;999.90;;;6.10;99.90;;;;;;5015232;28;20057;-94
2021/05/01 03:49:29;;;;;;;1999.90;999.90;;;6.00;99.90;;;;;;5017917;28;20555;-94
2021/05/01 03:51:59;;;;;;;1999.90;999.90;;;6.00;99.90;;;;;;5018113;28;20045;-94
2021/05/01 03:54:33;;;;;;;1999.90;999.90;;;5.90;99.90;;;;;;5018177;28;20064;-94
2021/05/01 03:57:01;;;;;;;1999.90;999.90;;;5.90;99.90;;;;;;5018369;28;20136;-94
2021/05/01 03:59:29;;;;;;;1999.90;999.90;;;5.90;99.90;;;;;;5018041;28;20404;-94
2021/05/01 04:02:09;;;;;;;1999.90;999.90;;;5.90;99.90;;;;;;5018444;28;20053;-94
2021/05/01 04:04:37;;;;;;;1999.90;999.90;;;5.80;99.90;;;;;;5018644;28;20050;-95
2021/05/01 04:07:07;;;;;;;1999.90;999.90;;;5.80;99.90;;;;;;5017521;28;20116;-94
2021/05/01 04:09:35;;;;;;;1999.90;999.90;;;5.80;99.90;;;;;;5017690;28;20069;-95
2021/05/01 04:12:03;;;;;;;1999.90;999.90;;;5.70;99.90;;;;;;5017469;28;20141;-94
2021/05/01 04:14:30;;;;;;;1999.90;999.90;;;5.70;99.90;;;;;;5018563;28;20145;-94
2021/05/01 04:16:58;;;;;;;1999.90;999.90;;;5.70;99.90;;;;;;5018233;28;20050;-94
2021/05/01 04:19:26;;;;;;;1999.90;999.90;;;5.70;99.90;;;;;;5017635;28;20056;-94
2021/05/01 04:22:03;;;;;;;1999.90;999.90;;;5.60;99.90;;;;;;5017416;28;20061;-94
2021/05/01 04:24:32;;;;;;;1999.90;999.90;;;5.60;99.90;;;;;;5018182;28;20050;-94
2021/05/01 04:27:01;;;;;;;1999.90;999.90;;;5.60;99.90;;;;;;5017528;28;20042;-94
2021/05/01 04:29:29;;;;;;;1999.90;999.90;;;5.50;99.90;;;;;;5017521;28;20057;-94
2021/05/01 04:31:59;;;;;;;1999.90;999.90;;;5.50;99.90;;;;;;5021047;28;20115;-94
2021/05/01 04:34:26;;;;;;;1999.90;999.90;;;5.50;99.90;;;;;;5023894;28;20054;-94
2021/05/01 04:37:06;;;;;;;1999.90;999.90;;;5.50;99.90;;;;;;5025821;28;20042;-94
2021/05/01 04:39:37;;;;;;;1999.90;999.90;;;5.50;99.90;;;;;;5025272;28;20113;-94
2021/05/01 04:42:07;;;;;;;1999.90;999.90;;;5.40;99.90;;;;;;5026188;28;20393;-95
2021/05/01 04:44:36;;;;;;;1999.90;999.90;;;5.40;99.90;;;;;;5025949;28;20053;-94
2021/05/01 04:47:08;;;;;;;1999.90;999.90;;;5.40;99.90;;;;;;5027113;28;20129;-94
2021/05/01 04:49:40;;;;;;;1999.90;999.90;;;5.30;99.90;;;;;;5038492;28;20058;-94
2021/05/01 04:52:07;;;;;;;1999.90;999.90;;;5.30;99.90;;;;;;5039249;28;20038;-94
2021/05/01 04:54:34;;;;;;;1999.90;999.90;;;5.30;99.90;;;;;;5034128;28;20037;-94
2021/05/01 04:57:02;;;;;;;1999.90;999.90;;;5.30;99.90;;;;;;5037939;28;20041;-94
2021/05/01 04:59:30;;;;;;;1999.90;999.90;;;5.30;99.90;;;;;;5038539;28;20056;-94
2021/05/01 05:02:03;;;;;;;1999.90;999.90;;;5.30;99.90;;;;;;5039609;28;20084;-94
2021/05/01 05:04:35;;;;;;;1999.90;999.90;;;5.30;99.90;;;;;;5039870;28;20041;-94
2021/05/01 05:07:11;;;;;;;1999.90;999.90;;;5.30;99.90;;;;;;5030095;28;20389;-94
2021/05/01 05:09:39;;;;;;;1999.90;999.90;;;5.20;99.90;;;;;;5025050;28;20057;-94
2021/05/01 05:12:06;;;;;;;1999.90;999.90;;;5.30;99.90;;;;;;5025249;28;20046;-94
2021/05/01 05:14:33;;;;;;;1999.90;999.90;;;5.30;99.90;;;;;;5024735;28;20477;-94
2021/05/01 05:17:04;;;;;;;1999.90;999.90;;;5.30;99.90;;;;;;5024917;28;20353;-94
2021/05/01 05:19:34;;;;;;;1999.90;999.90;;;5.20;99.90;;;;;;5038754;28;20065;-94
2021/05/01 05:22:08;;;;;;;1999.90;999.90;;;5.30;99.90;;;;;;5039263;28;20041;-94
2021/05/01 05:24:36;;;;;;;1999.90;999.90;;;5.20;99.90;;;;;;5039196;28;20081;-94
2021/05/01 05:27:08;;;;;;;1999.90;999.90;;;5.30;99.90;;;;;;5038833;28;20064;-94
2021/05/01 05:29:37;;;;;;;1999.90;999.90;;;5.30;99.90;;;;;;5039087;28;20053;-95
2021/05/01 05:32:05;;;;;;;1999.90;999.90;;;5.40;99.90;;;;;;5029400;28;20046;-93
2021/05/01 05:34:36;;;;;;;1999.90;999.90;;;5.40;99.90;;;;;;5017891;28;20050;-94
2021/05/01 05:37:03;;;;;;;1999.90;999.90;;;5.40;99.90;;;;;;5016845;28;20070;-94
2021/05/01 05:39:31;;;;;;;1999.90;999.90;;;5.50;99.90;;;;;;5017110;28;20049;-94
2021/05/01 05:42:00;;;;;;;1999.90;999.90;;;5.50;99.90;;;;;;5016139;28;20045;-94
2021/05/01 05:44:30;;;;;;;1999.90;999.90;;;5.50;99.90;;;;;;5017531;28;20058;-93
2021/05/01 05:46:58;;;;;;;1999.90;999.90;;;5.60;99.90;;;;;;5016722;28;20129;-94
2021/05/01 05:49:48;;;;;;;1999.90;999.90;;;5.60;99.90;;;;;;5016744;28;20049;-94
2021/05/01 05:52:15;;;;;;;1999.90;999.90;;;5.70;99.90;;;;;;5016255;28;20050;-94
2021/05/01 05:54:43;;;;;;;1999.90;999.90;;;5.80;99.90;;;;;;5016600;28;20053;-93
2021/05/01 05:57:20;;;;;;;1999.90;999.90;;;5.80;99.90;;;;;;5016186;28;20403;-94
2021/05/01 05:59:48;;;;;;;1999.90;999.90;;;5.90;99.90;;;;;;5016073;28;20137;-94
2021/05/01 06:02:35;;;;;;;1999.90;999.90;;;5.90;99.90;;;;;;5015917;28;20104;-94
2021/05/01 06:05:09;;;;;;;1999.90;999.90;;;6.00;99.90;;;;;;5016470;28;20053;-94
2021/05/01 06:07:43;;;;;;;1999.90;999.90;;;6.00;99.90;;;;;;5015772;28;20080;-94
2021/05/01 06:10:13;;;;;;;1999.90;999.90;;;6.10;99.90;;;;;;5014980;28;20054;-94
2021/05/01 06:12:53;;;;;;;1999.90;999.90;;;6.10;99.90;;;;;;5015513;28;20050;-94
2021/05/01 06:15:26;;;;;;;1999.90;999.90;;;6.20;99.90;;;;;;5015477;28;20061;-94
2021/05/01 06:18:00;;;;;;;1999.90;999.90;;;6.30;99.90;;;;;;5015753;28;20072;-94
2021/05/01 06:20:30;;;;;;;1999.90;999.90;;;6.30;99.90;;;;;;5015950;28;20396;-94
2021/05/01 06:23:15;;;;;;;1999.90;999.90;;;6.40;99.90;;;;;;5015631;28;20100;-95
2021/05/01 06:25:49;;;;;;;1999.90;999.90;;;6.50;99.90;;;;;;5015498;28;20050;-94
2021/05/01 06:28:28;;;;;;;1999.90;999.90;;;6.50;99.90;;;;;;5015477;28;20052;-95
2021/05/01 06:31:18;;;;;;;1999.90;999.90;;;6.50;99.90;;;;;;5016175;28;20472;-94
2021/05/01 06:33:51;;;;;;;1999.90;999.90;;;6.70;99.90;;;;;;5015443;28;20400;-94
2021/05/01 06:36:24;;;;;;;1999.90;999.90;;;6.80;99.90;;;;;;5015082;28;20050;-95
2021/05/01 06:38:57;;;;;;;1999.90;999.90;;;6.80;99.90;;;;;;5015429;28;20386;-94
2021/05/01 06:41:32;;;;;;;1999.90;999.90;;;6.80;99.90;;;;;;5015749;28;20054;-94
2021/05/01 06:44:16;;;;;;;1999.90;999.90;;;6.80;99.90;;;;;;5015460;28;20054;-95
2021/05/01 06:46:58;;;;;;;1999.90;999.90;;;6.90;99.90;;;;;;5015161;28;20092;-94
2021/05/01 06:49:36;;;;;;;1999.90;999.90;;;7.00;99.90;;;;;;5015461;28;20065;-93
2021/05/01 06:52:06;;;;;;;1999.90;999.90;;;7.10;99.90;;;;;;5015343;28;20555;-94
2021/05/01 06:54:35;;;;;;;1999.90;999.90;;;7.10;99.90;;;;;;5015057;28;20061;-94
2021/05/01 06:57:14;;;;;;;1999.90;999.90;;;7.30;99.90;;;;;;5015426;28;20058;-95
2021/05/01 06:59:42;;;;;;;1999.90;999.90;;;7.40;99.90;;;;;;5015235;28;20061;-95
2021/05/01 07:02:27;;;;;;;1999.90;999.90;;;7.40;99.90;;;;;;5014681;28;20061;-94
2021/05/01 07:05:14;;;;;;;1999.90;999.90;;;7.40;99.90;;;;;;5013230;28;20473;-94
2021/05/01 07:07:43;;;;;;;1999.90;999.90;;;7.50;99.90;;;;;;5015180;28;20058;-95
2021/05/01 07:10:13;;;;;;;1999.90;999.90;;;7.60;99.90;;;;;;5014132;28;20060;-94
2021/05/01 07:12:41;;;;;;;1999.90;999.90;;;7.60;99.90;;;;;;5015285;28;20050;-95
2021/05/01 07:15:10;;;;;;;1999.90;999.90;;;7.70;99.90;;;;;;5015321;28;20053;-94
2021/05/01 07:17:39;;;;;;;1999.90;999.90;;;7.70;99.90;;;;;;5015720;28;20045;-94
2021/05/01 07:20:09;;;;;;;1999.90;999.90;;;7.80;99.90;;;;;;5015399;28;20080;-94
2021/05/01 07:22:37;;;;;;;1999.90;999.90;;;7.80;99.90;;;;;;5016653;28;20145;-94
2021/05/01 07:25:09;;;;;;;1999.90;999.90;;;7.90;99.90;;;;;;5019896;28;20049;-95
2021/05/01 07:27:40;;;;;;;1999.90;999.90;;;8.00;99.90;;;;;;5018679;28;20061;-94
2021/05/01 07:30:11;;;;;;;1999.90;999.90;;;8.20;99.90;;;;;;5020168;28;20054;-96
2021/05/01 07:32:43;;;;;;;1999.90;999.90;;;8.30;99.90;;;;;;5018579;28;20049;-94
2021/05/01 07:35:17;;;;;;;1999.90;999.90;;;8.40;99.90;;;;;;5018643;28;20080;-94
2021/05/01 07:37:46;;;;;;;1999.90;999.90;;;8.50;99.90;;;;;;5018534;28;20080;-93
2021/05/01 07:40:20;;;;;;;1999.90;999.90;;;8.50;99.90;;;;;;5019161;28;20074;-94
2021/05/01 07:42:50;;;;;;;1999.90;999.90;;;8.50;99.90;;;;;;5018806;28;20077;-95
2021/05/01 07:45:21;;;;;;;1999.90;999.90;;;8.60;99.90;;;;;;5019264;28;20165;-95
2021/05/01 07:47:51;;;;;;;1999.90;999.90;;;8.50;99.90;;;;;;5018106;28;20046;-95
2021/05/01 07:50:21;;;;;;;1999.90;999.90;;;8.50;99.90;;;;;;5018665;28;20096;-95
2021/05/01 07:52:51;;;;;;;1999.90;999.90;;;8.50;99.90;;;;;;5018287;28;20061;-94
2021/05/01 07:55:20;;;;;;;1999.90;999.90;;;8.60;99.90;;;;;;5018393;28;20058;-94
2021/05/01 07:57:48;;;;;;;1999.90;999.90;;;8.60;99.90;;;;;;5018194;28;20050;-93
2021/05/01 08:00:16;;;;;;;1999.90;999.90;;;8.80;99.90;;;;;;5018990;28;20057;-94
2021/05/01 08:02:44;;;;;;;1999.90;999.90;;;8.80;99.90;;;;;;5018146;28;20053;-93
2021/05/01 08:05:14;;;;;;;1999.90;999.90;;;8.90;99.90;;;;;;5017721;28;20564;-93
2021/05/01 08:07:42;;;;;;;1999.90;999.90;;;8.90;99.90;;;;;;5017491;28;20138;-94
2021/05/01 08:10:11;;;;;;;1999.90;999.90;;;8.90;99.90;;;;;;5017569;28;20053;-94
2021/05/01 08:12:39;;;;;;;1999.90;999.90;;;8.80;99.90;;;;;;5018123;28;20050;-94
2021/05/01 08:15:09;;;;;;;1999.90;999.90;;;8.90;99.90;;;;;;5018058;28;20377;-93
2021/05/01 08:17:39;;;;;;;1999.90;999.90;;;8.80;99.90;;;;;;5017630;28;20050;-93
2021/05/01 08:20:09;;;;;;;1999.90;999.90;;;9.00;99.90;;;;;;5017693;28;20061;-93
2021/05/01 08:22:41;;;;;;;1999.90;999.90;;;9.10;99.90;;;;;;5017635;28;20054;-93
2021/05/01 08:25:11;;;;;;;1999.90;999.90;;;9.20;99.90;;;;;;5017384;28;20054;-94
2021/05/01 08:27:40;;;;;;;1999.90;999.90;;;9.30;99.90;;;;;;5017509;28;20053;-94
2021/05/01 08:30:11;;;;;;;1999.90;999.90;;;9.40;99.90;;;;;;5018400;28;20046;-93
2021/05/01 08:32:40;;;;;;;1999.90;999.90;;;9.50;99.90;;;;;;5018710;28;20057;-94
2021/05/01 08:35:09;;;;;;;1999.90;999.90;;;9.50;99.90;;;;;;5018513;28;20133;-93
2021/05/01 08:37:37;;;;;;;1999.90;999.90;;;9.60;99.90;;;;;;5023698;28;20050;-94
2021/05/01 08:40:05;;;;;;;1999.90;999.90;;;9.70;99.90;;;;;;5023876;28;20053;-93
2021/05/01 08:42:33;;;;;;;1999.90;999.90;;;9.70;99.90;;;;;;5023965;28;20073;-94
2021/05/01 08:45:04;;;;;;;1999.90;999.90;;;9.80;99.90;;;;;;5023191;28;20069;-93
2021/05/01 08:47:34;;;;;;;1999.90;999.90;;;9.80;99.90;;;;;;5017401;28;20085;-93
2021/05/01 08:50:09;;;;;;;1999.90;999.90;;;9.80;99.90;;;;;;5017966;28;20080;-95
2021/05/01 08:52:48;;;;;;;1999.90;999.90;;;9.80;99.90;;;;;;5017481;28;20505;-94
2021/05/01 08:55:18;;;;;;;1999.90;999.90;;;9.70;99.90;;;;;;5017392;28;20515;-94
2021/05/01 09:25:15;;;;;;;1999.90;999.90;;;9.70;99.90;;;;;;5002481;28;20058;-96
2021/05/01 09:28:10;;;;;;;1999.90;999.90;;;9.90;99.90;;;;;;5004821;28;20077;-96
2021/05/01 09:36:19;;;;;;;1999.90;999.90;;;10.10;99.90;;;;;;4976203;28;20039;-96
2021/05/01 09:38:49;;;;;;;1999.90;999.90;;;10.20;99.90;;;;;;4978616;28;20543;-96
2021/05/01 09:41:28;;;;;;;1999.90;999.90;;;10.30;99.90;;;;;;4978408;28;20063;-95
2021/05/01 09:44:04;;;;;;;1999.90;999.90;;;10.60;99.90;;;;;;4977533;28;20058;-96
2021/05/01 09:46:45;;;;;;;1999.90;999.90;;;10.70;99.90;;;;;;4977749;28;20058;-95
2021/05/01 09:49:14;;;;;;;1999.90;999.90;;;10.60;99.90;;;;;;4977339;28;20062;-95
2021/05/01 09:51:50;;;;;;;1999.90;999.90;;;10.60;99.90;;;;;;4981788;28;20473;-95
2021/05/01 09:54:24;;;;;;;1999.90;999.90;;;10.60;99.90;;;;;;4983297;28;20054;-96
2021/05/01 09:56:53;;;;;;;1999.90;999.90;;;10.50;99.90;;;;;;4983653;28;20067;-95
2021/05/01 09:59:20;;;;;;;1999.90;999.90;;;10.40;99.90;;;;;;4983845;28;20085;-96
2021/05/01 10:01:58;;;;;;;1999.90;999.90;;;10.30;99.90;;;;;;4983434;28;20081;-95
2021/05/01 10:04:26;;;;;;;1999.90;999.90;;;10.30;99.90;;;;;;4982672;28;20062;-95
2021/05/01 10:07:01;;;;;;;1999.90;999.90;;;10.30;99.90;;;;;;4993648;28;20084;-95
2021/05/01 10:09:32;;;;;;;1999.90;999.90;;;10.20;99.90;;;;;;4997175;28;20115;-95
2021/05/01 10:12:06;;;;;;;1999.90;999.90;;;10.20;99.90;;;;;;4999017;28;20097;-95
2021/05/01 10:14:42;;;;;;;1999.90;999.90;;;10.10;99.90;;;;;;4998609;28;20034;-96
2021/05/01 10:17:13;;;;;;;1999.90;999.90;;;10.20;99.90;;;;;;4998210;28;20042;-95
2021/05/01 10:19:46;;;;;;;1999.90;999.90;;;10.20;99.90;;;;;;4998206;28;20034;-96
2021/05/01 10:22:36;;;;;;;1999.90;999.90;;;10.20;99.90;;;;;;4997160;28;20078;-96
2021/05/01 10:25:06;;;;;;;1999.90;999.90;;;10.10;99.90;;;;;;4990956;28;20059;-95
2021/05/01 10:27:46;;;;;;;1999.90;999.90;;;10.20;99.90;;;;;;4985183;28;20078;-95
2021/05/01 10:30:27;;;;;;;1999.90;999.90;;;10.20;99.90;;;;;;4982866;28;20114;-95
2021/05/01 10:33:08;;;;;;;;;;;;;;;;;;;;;
2021/05/01 10:45:54;;;;;;;1999.90;999.90;;;11.00;99.90;;;;;;5010016;28;20044;-96
2021/05/01 10:48:29;;;;;;;1999.90;999.90;;;11.00;99.90;;;;;;5012384;28;20050;-96
2021/05/01 10:51:16;;;;;;;1999.90;999.90;;;10.90;99.90;;;;;;5010297;28;20051;-96
2021/05/01 10:54:08;;;;;;;1999.90;999.90;;;10.90;99.90;;;;;;5008647;28;20078;-96
2021/05/01 10:56:44;;;;;;;1999.90;999.90;;;10.90;99.90;;;;;;5006945;28;20058;-96
2021/05/01 10:59:14;;;;;;;1999.90;999.90;;;11.00;99.90;;;;;;5009261;28;20056;-96
2021/05/01 11:01:48;;;;;;;1999.90;999.90;;;11.30;99.90;;;;;;5009270;28;20505;-96
2021/05/01 11:04:20;;;;;;;1999.90;999.90;;;11.30;99.90;;;;;;5007537;28;20091;-96
2021/05/01 11:07:11;;;;;;;1999.90;999.90;;;11.30;99.90;;;;;;5067312;23;20138;-96
2021/05/01 11:09:46;;;;;;;1999.90;999.90;;;11.20;99.90;;;;;;5012062;28;20050;-96
2021/05/01 11:16:49;;;;;;;1999.90;999.90;;;11.10;99.20;;;;;;4978023;29;20050;-96
2021/05/01 11:19:22;;;;;;;1999.90;999.90;;;11.00;99.90;;;;;;4986187;28;20069;-96
2021/05/01 11:21:58;;;;;;;1999.90;999.90;;;10.90;99.40;;;;;;5014892;28;20122;-96
2021/05/01 11:24:26;;;;;;;1999.90;999.90;;;10.90;99.90;;;;;;5018938;28;20085;-96
2021/05/01 11:27:01;;;;;;;1999.90;999.90;;;11.10;99.90;;;;;;5021176;28;20069;-96
2021/05/01 11:29:30;;;;;;;1999.90;999.90;;;11.20;99.90;;;;;;5019152;28;20042;-96
2021/05/01 11:31:59;;;;;;;1999.90;999.90;;;11.30;99.90;;;;;;5014675;28;20047;-96
2021/05/01 11:38:27;;;;;;;1999.90;999.90;;;11.40;99.90;;;;;;5005679;28;20046;-96
2021/05/01 11:40:56;;;;;;;1999.90;999.90;;;11.40;99.80;;;;;;5009265;28;20458;-96
2021/05/01 11:43:28;;;;;;;1999.90;999.90;;;11.30;99.90;;;;;;5006718;28;20109;-96
2021/05/01 11:46:17;;;;;;;1999.90;999.90;;;11.40;99.90;;;;;;5012144;28;20441;-96
2021/05/01 11:48:55;;;;;;;1999.90;999.90;;;11.40;99.90;;;;;;5010948;28;20129;-96
2021/05/01 11:51:29;;;;;;;1999.90;999.90;;;11.40;99.70;;;;;;5016110;28;20077;-96
2021/05/01 11:54:10;;;;;;;1999.90;999.90;;;11.40;99.90;;;;;;5021207;28;20041;-96
2021/05/01 11:56:53;;;;;;;1999.90;999.90;;;11.40;99.90;;;;;;5020715;28;20030;-96
2021/05/01 11:59:21;;;;;;;1999.90;999.90;;;11.40;99.90;;;;;;5021401;28;20058;-96
2021/05/01 12:01:52;;;;;;;1999.90;999.90;;;11.30;99.90;;;;;;5021702;28;20034;-96
2021/05/01 12:04:20;;;;;;;1999.90;999.90;;;11.30;99.90;;;;;;5014610;28;20058;-96
2021/05/01 12:06:54;;;;;;;1999.90;999.90;;;11.30;99.90;;;;;;5004540;28;20109;-96
2021/05/01 12:09:29;;;;;;;1999.90;999.90;;;11.40;99.90;;;;;;5003867;28;20054;-96
2021/05/01 12:11:57;;;;;;;1999.90;999.90;;;11.40;98.60;;;;;;5000920;28;20078;-95
2021/05/01 12:14:27;;;;;;;1999.90;999.90;;;11.40;98.30;;;;;;4999840;28;20058;-96
2021/05/01 12:17:09;;;;;;;1999.90;999.90;;;11.40;98.60;;;;;;5001499;28;20604;-96
2021/05/01 12:19:41;;;;;;;1999.90;999.90;;;11.50;98.50;;;;;;5002895;28;20050;-96
2021/05/01 12:22:29;;;;;;;1999.90;999.90;;;11.50;98.30;;;;;;4999810;28;20112;-96
2021/05/01 12:24:58;;;;;;;1999.90;999.90;;;11.70;99.50;;;;;;5000498;28;20085;-96
2021/05/01 12:27:52;;;;;;;1999.90;999.90;;;11.90;97.70;;;;;;4999030;28;20054;-96
2021/05/01 12:30:50;;;;;;;1999.90;999.90;;;11.80;98.40;;;;;;4995558;28;20113;-95
2021/05/01 12:33:51;;;;;;;1999.90;999.90;;;11.80;98.60;;;;;;4958404;29;20055;-96
2021/05/01 12:36:24;;;;;;;1999.90;999.90;;;12.00;97.80;;;;;;4998723;28;20477;-95
2021/05/01 12:38:54;;;;;;;1999.90;999.90;;;12.00;98.40;;;;;;4999228;28;20055;-93
2021/05/01 12:41:41;;;;;;;1999.90;999.90;;;12.20;97.60;;;;;;4999394;28;20070;-96
2021/05/01 12:44:29;;;;;;;1999.90;999.90;;;12.40;97.10;;;;;;4999336;28;20489;-95
2021/05/01 12:46:57;;;;;;;1999.90;999.90;;;12.40;96.30;;;;;;5001621;28;20050;-96
2021/05/01 12:49:31;;;;;;;1999.90;999.90;;;12.40;95.80;;;;;;4999346;28;20109;-96
2021/05/01 12:52:07;;;;;;;1999.90;999.90;;;12.40;96.30;;;;;;5009072;28;20377;-95
2021/05/01 12:54:40;;;;;;;1999.90;999.90;;;12.30;95.80;;;;;;4998324;28;20054;-96
2021/05/01 12:57:12;;;;;;;1999.90;999.90;;;12.20;95.90;;;;;;4998227;28;20073;-96
2021/05/01 12:59:44;;;;;;;1999.90;999.90;;;12.20;96.80;;;;;;4999114;28;20054;-96
2021/05/01 13:02:22;;;;;;;1999.90;999.90;;;12.10;95.20;;;;;;4998124;28;20084;-96
2021/05/01 13:05:17;;;;;;;1999.90;999.90;;;12.20;96.80;;;;;;4998252;28;20065;-96
2021/05/01 13:07:53;;;;;;;1999.90;999.90;;;12.20;97.30;;;;;;4964255;28;20074;-96
2021/05/01 13:10:22;;;;;;;1999.90;999.90;;;12.20;96.00;;;;;;4997790;28;20065;-96
2021/05/01 13:13:02;;;;;;;1999.90;999.90;;;12.10;96.50;;;;;;4999676;28;20478;-96
2021/05/01 13:23:48;;;;;;;1999.90;999.90;;;12.40;96.90;;;;;;5008355;28;20046;-96
2021/05/01 13:26:19;;;;;;;1999.90;999.90;;;12.60;96.70;;;;;;4990950;28;20058;-96
2021/05/01 13:28:53;;;;;;;1999.90;999.90;;;12.70;94.40;;;;;;5006928;28;20050;-96
2021/05/01 13:31:30;;;;;;;1999.90;999.90;;;12.60;94.60;;;;;;5008484;28;20125;-96
2021/05/01 13:33:58;;;;;;;1999.90;999.90;;;12.70;96.00;;;;;;4997174;28;20485;-96
2021/05/01 13:36:26;;;;;;;1999.90;999.90;;;12.80;94.80;;;;;;4998243;28;20050;-95
2021/05/01 13:38:54;;;;;;;1999.90;999.90;;;12.90;94.40;;;;;;4998780;28;20053;-96
2021/05/01 13:41:22;;;;;;;1999.90;999.90;;;12.80;95.10;;;;;;5000409;28;20447;-95
2021/05/01 13:43:52;;;;;;;1999.90;999.90;;;13.00;96.90;;;;;;4996182;28;20058;-96
2021/05/01 13:46:20;;;;;;;1999.90;999.90;;;13.30;98.50;;;;;;4997250;28;20050;-96
2021/05/01 13:48:49;;;;;;;1999.90;999.90;;;13.60;96.00;;;;;;4996971;28;20074;-96
2021/05/01 13:51:29;;;;;;;1999.90;999.90;;;13.70;94.80;;;;;;5003253;28;20100;-96
2021/05/01 13:54:07;;;;;;;1999.90;999.90;;;13.60;94.40;;;;;;4998848;28;20062;-96
2021/05/01 13:56:52;;;;;;;1999.90;999.90;;;13.60;94.20;;;;;;4999710;28;20514;-96
2021/05/01 13:59:27;;;;;;;;;;;13.80;95.40;;;;;;5001397;28;20058;-94
2021/05/01 14:01:55;;;;;;;1999.90;999.90;;;13.80;94.70;;;;;;4996702;28;19922;-95
2021/05/01 14:04:33;;;;;;;1999.90;999.90;;;14.10;95.80;;;;;;4996047;28;20046;-94